createdAt,value
2019-05-21T00:00:13.576Z,1005.65
2019-05-21T00:01:13.547Z,1005.65
2019-05-21T00:02:13.539Z,1005.56
2019-05-21T00:03:13.531Z,1005.56
2019-05-21T00:04:27.329Z,1005.51
2019-05-21T00:05:14.549Z,1005.52
2019-05-21T00:06:13.491Z,1005.49
2019-05-21T00:07:13.479Z,1005.53
2019-05-21T00:08:13.512Z,1005.50
2019-05-21T00:09:13.458Z,1005.47
2019-05-21T00:10:13.448Z,1005.50
2019-05-21T00:11:13.458Z,1005.53
2019-05-21T00:12:13.430Z,1005.47
2019-05-21T00:13:13.422Z,1005.48
2019-05-21T00:14:13.398Z,1005.45
2019-05-21T00:15:13.395Z,1005.41
2019-05-21T00:16:13.398Z,1005.48
2019-05-21T00:17:13.396Z,1005.45
2019-05-21T00:18:13.369Z,1005.47
2019-05-21T00:19:13.350Z,1005.55
2019-05-21T00:20:13.378Z,1005.56
2019-05-21T00:21:13.350Z,1005.53
2019-05-21T00:22:14.173Z,1005.48
2019-05-21T00:24:30.367Z,1005.60
2019-05-21T00:25:30.284Z,1005.52
2019-05-21T00:26:30.284Z,1005.52
2019-05-21T00:27:30.248Z,1005.52
2019-05-21T00:28:30.243Z,1005.51
2019-05-21T00:29:30.227Z,1005.50
2019-05-21T00:30:30.234Z,1005.55
2019-05-21T00:31:30.250Z,1005.51
2019-05-21T00:32:30.194Z,1005.50
2019-05-21T00:33:30.211Z,1005.51
2019-05-21T00:34:43.094Z,1005.52
2019-05-21T00:35:31.202Z,1005.58
2019-05-21T00:36:30.160Z,1005.47
2019-05-21T00:37:30.165Z,1005.42
2019-05-21T00:38:30.132Z,1005.44
2019-05-21T00:39:30.145Z,1005.42
2019-05-21T00:40:30.146Z,1005.39
2019-05-21T00:41:30.106Z,1005.41
2019-05-21T00:42:30.109Z,1005.42
2019-05-21T00:43:30.091Z,1005.44
2019-05-21T00:44:30.085Z,1005.42
2019-05-21T00:45:30.058Z,1005.41
2019-05-21T00:46:30.056Z,1005.47
2019-05-21T00:47:30.065Z,1005.44
2019-05-21T00:48:30.043Z,1005.42
2019-05-21T00:49:30.012Z,1005.42
2019-05-21T00:50:30.001Z,1005.43
2019-05-21T00:51:30.015Z,1005.44
2019-05-21T00:52:29.984Z,1005.39
2019-05-21T00:53:30.005Z,1005.40
2019-05-21T00:54:29.961Z,1005.41
2019-05-21T00:55:29.950Z,1005.37
2019-05-21T00:56:29.952Z,1005.39
2019-05-21T00:57:29.930Z,1005.36
2019-05-21T00:58:29.949Z,1005.36
2019-05-21T00:59:29.909Z,1005.37
2019-05-21T01:00:29.898Z,1005.35
2019-05-21T01:01:29.888Z,1005.37
2019-05-21T01:02:29.907Z,1005.30
2019-05-21T01:03:29.909Z,1005.30
2019-05-21T01:04:29.871Z,1005.33
2019-05-21T01:05:29.859Z,1005.30
2019-05-21T01:06:29.839Z,1005.31
2019-05-21T01:07:29.822Z,1005.37
2019-05-21T01:08:29.816Z,1005.35
2019-05-21T01:09:29.824Z,1005.37
2019-05-21T01:10:29.796Z,1005.34
2019-05-21T01:11:29.786Z,1005.40
2019-05-21T01:12:29.772Z,1005.33
2019-05-21T01:13:29.765Z,1005.38
2019-05-21T01:14:29.774Z,1005.39
2019-05-21T01:15:29.741Z,1005.45
2019-05-21T01:16:29.733Z,1005.36
2019-05-21T01:17:29.724Z,1005.39
2019-05-21T01:18:29.710Z,1005.43
2019-05-21T01:19:29.700Z,1005.36
2019-05-21T01:20:29.713Z,1005.42
2019-05-21T01:21:29.699Z,1005.39
2019-05-21T01:22:29.675Z,1005.37
2019-05-21T01:23:29.657Z,1005.37
2019-05-21T01:24:29.665Z,1005.38
2019-05-21T01:25:29.658Z,1005.34
2019-05-21T01:26:29.636Z,1005.37
2019-05-21T01:27:29.611Z,1005.35
2019-05-21T01:28:29.617Z,1005.36
2019-05-21T01:29:29.601Z,1005.36
2019-05-21T01:30:29.601Z,1005.40
2019-05-21T01:31:29.576Z,1005.45
2019-05-21T01:32:29.557Z,1005.38
2019-05-21T01:33:29.545Z,1005.42
2019-05-21T01:34:29.534Z,1005.40
2019-05-21T01:35:29.542Z,1005.36
2019-05-21T01:36:29.513Z,1005.32
2019-05-21T01:37:29.512Z,1005.37
2019-05-21T01:38:29.509Z,1005.37
2019-05-21T01:39:29.482Z,1005.35
2019-05-21T01:40:29.492Z,1005.34
2019-05-21T01:41:29.465Z,1005.27
2019-05-21T01:42:29.450Z,1005.26
2019-05-21T01:43:29.446Z,1005.29
2019-05-21T01:44:29.433Z,1005.29
2019-05-21T01:45:29.438Z,1005.28
2019-05-21T01:46:29.411Z,1005.31
2019-05-21T01:47:29.402Z,1005.31
2019-05-21T01:48:29.390Z,1005.27
2019-05-21T01:49:29.383Z,1005.27
2019-05-21T01:50:29.394Z,1005.24
2019-05-21T01:51:29.359Z,1005.29
2019-05-21T01:52:29.346Z,1005.30
2019-05-21T01:53:29.335Z,1005.28
2019-05-21T01:54:29.334Z,1005.27
2019-05-21T01:55:29.345Z,1005.31
2019-05-21T01:56:29.327Z,1005.27
2019-05-21T01:57:29.300Z,1005.29
2019-05-21T01:58:29.284Z,1005.30
2019-05-21T01:59:29.282Z,1005.27
2019-05-21T02:00:29.278Z,1005.31
2019-05-21T02:01:29.366Z,1005.30
2019-05-21T02:02:29.257Z,1005.24
2019-05-21T02:03:29.239Z,1005.33
2019-05-21T02:04:29.246Z,1005.28
2019-05-21T02:05:33.208Z,1005.30
2019-05-21T02:06:29.206Z,1005.30
2019-05-21T02:07:29.225Z,1005.18
2019-05-21T02:08:29.182Z,1005.25
2019-05-21T02:09:29.170Z,1005.27
2019-05-21T02:10:29.158Z,1005.25
2019-05-21T02:11:29.151Z,1005.24
2019-05-21T02:12:29.161Z,1005.26
2019-05-21T02:13:29.134Z,1005.26
2019-05-21T02:14:29.119Z,1005.25
2019-05-21T02:15:29.119Z,1005.26
2019-05-21T02:16:29.110Z,1005.29
2019-05-21T02:17:29.109Z,1005.27
2019-05-21T02:18:29.076Z,1005.30
2019-05-21T02:19:29.089Z,1005.26
2019-05-21T02:20:29.059Z,1005.30
2019-05-21T02:21:29.045Z,1005.34
2019-05-21T02:22:29.066Z,1005.29
2019-05-21T02:23:29.027Z,1005.33
2019-05-21T02:24:29.019Z,1005.28
2019-05-21T02:25:29.016Z,1005.31
2019-05-21T02:26:28.992Z,1005.39
2019-05-21T02:27:29.002Z,1005.34
2019-05-21T02:28:29.009Z,1005.38
2019-05-21T02:29:28.961Z,1005.28
2019-05-21T02:30:28.964Z,1005.33
2019-05-21T02:31:28.948Z,1005.36
2019-05-21T02:32:28.929Z,1005.40
2019-05-21T02:33:29.051Z,1005.32
2019-05-21T02:34:28.924Z,1005.43
2019-05-21T02:35:28.911Z,1005.41
2019-05-21T02:36:28.886Z,1005.43
2019-05-21T02:37:28.875Z,1005.44
2019-05-21T02:38:28.873Z,1005.35
2019-05-21T02:39:28.870Z,1005.45
2019-05-21T02:40:28.839Z,1005.43
2019-05-21T02:41:28.837Z,1005.42
2019-05-21T02:42:28.817Z,1005.35
2019-05-21T02:43:28.813Z,1005.34
2019-05-21T02:44:28.844Z,1005.39
2019-05-21T02:45:28.790Z,1005.36
2019-05-21T02:46:28.851Z,1005.40
2019-05-21T02:47:28.770Z,1005.36
2019-05-21T02:48:28.798Z,1005.32
2019-05-21T02:49:28.821Z,1005.38
2019-05-21T02:50:28.737Z,1005.38
2019-05-21T02:51:28.730Z,1005.36
2019-05-21T02:52:28.722Z,1005.46
2019-05-21T02:53:28.706Z,1005.42
2019-05-21T02:54:39.994Z,1005.45
2019-05-21T02:55:29.700Z,1005.45
2019-05-21T02:56:28.675Z,1005.50
2019-05-21T02:57:28.666Z,1005.50
2019-05-21T02:58:28.655Z,1005.48
2019-05-21T02:59:28.675Z,1005.50
2019-05-21T03:00:28.649Z,1005.51
2019-05-21T03:01:28.628Z,1005.48
2019-05-21T03:02:28.636Z,1005.51
2019-05-21T03:03:28.603Z,1005.49
2019-05-21T03:04:28.588Z,1005.44
2019-05-21T03:05:28.599Z,1005.48
2019-05-21T03:06:28.565Z,1005.49
2019-05-21T03:07:28.563Z,1005.44
2019-05-21T03:08:28.556Z,1005.41
2019-05-21T03:09:28.539Z,1005.46
2019-05-21T03:10:28.556Z,1005.41
2019-05-21T03:11:28.513Z,1005.38
2019-05-21T03:12:28.506Z,1005.40
2019-05-21T03:13:28.496Z,1005.45
2019-05-21T03:14:28.487Z,1005.40
2019-05-21T03:15:28.496Z,1005.43
2019-05-21T03:16:28.465Z,1005.40
2019-05-21T03:17:28.450Z,1005.48
2019-05-21T03:18:28.452Z,1005.49
2019-05-21T03:19:28.427Z,1005.51
2019-05-21T03:20:28.468Z,1005.45
2019-05-21T03:21:28.410Z,1005.50
2019-05-21T03:22:28.407Z,1005.54
2019-05-21T03:23:28.386Z,1005.55
2019-05-21T03:24:28.382Z,1005.56
2019-05-21T03:25:28.362Z,1005.53
2019-05-21T03:26:28.381Z,1005.56
2019-05-21T03:27:28.350Z,1005.59
2019-05-21T03:28:28.342Z,1005.58
2019-05-21T03:29:28.320Z,1005.66
2019-05-21T03:30:28.326Z,1005.56
2019-05-21T03:31:28.310Z,1005.57
2019-05-21T03:32:28.291Z,1005.56
2019-05-21T03:33:28.294Z,1005.61
2019-05-21T03:34:28.292Z,1005.58
2019-05-21T03:35:28.296Z,1005.62
2019-05-21T03:36:33.105Z,1005.64
2019-05-21T03:37:29.251Z,1005.64
2019-05-21T03:38:28.232Z,1005.64
2019-05-21T03:39:28.216Z,1005.66
2019-05-21T03:40:28.224Z,1005.64
2019-05-21T03:41:28.225Z,1005.61
2019-05-21T03:42:28.183Z,1005.59
2019-05-21T03:43:28.183Z,1005.62
2019-05-21T03:44:28.168Z,1005.63
2019-05-21T03:45:28.153Z,1005.64
2019-05-21T03:46:28.177Z,1005.63
2019-05-21T03:47:28.136Z,1005.66
2019-05-21T03:48:28.128Z,1005.70
2019-05-21T03:49:28.115Z,1005.74
2019-05-21T03:50:28.102Z,1005.77
2019-05-21T03:51:28.096Z,1005.74
2019-05-21T03:52:28.099Z,1005.82
2019-05-21T03:53:28.068Z,1005.71
2019-05-21T03:54:28.069Z,1005.80
2019-05-21T03:55:28.062Z,1005.82
2019-05-21T03:56:28.037Z,1005.85
2019-05-21T03:57:28.052Z,1005.88
2019-05-21T03:58:28.020Z,1005.88
2019-05-21T03:59:28.005Z,1005.87
2019-05-21T04:00:28.002Z,1005.89
2019-05-21T04:01:27.988Z,1005.89
2019-05-21T04:02:27.993Z,1005.92
2019-05-21T04:03:27.961Z,1005.87
2019-05-21T04:04:27.964Z,1005.89
2019-05-21T04:05:27.947Z,1005.84
2019-05-21T04:06:28.962Z,1005.88
2019-05-21T04:07:27.946Z,1005.84
2019-05-21T04:08:27.910Z,1005.93
2019-05-21T04:09:27.907Z,1005.92
2019-05-21T04:10:27.887Z,1005.85
2019-05-21T04:11:27.889Z,1005.89
2019-05-21T04:12:27.892Z,1005.85
2019-05-21T04:13:27.867Z,1005.94
2019-05-21T04:14:27.860Z,1005.87
2019-05-21T04:15:27.856Z,1005.94
2019-05-21T04:16:27.844Z,1005.91
2019-05-21T04:17:27.837Z,1005.97
2019-05-21T04:18:27.817Z,1005.97
2019-05-21T04:19:27.793Z,1005.97
2019-05-21T04:20:27.786Z,1005.93
2019-05-21T04:21:27.771Z,1005.91
2019-05-21T04:22:27.804Z,1005.90
2019-05-21T04:23:27.772Z,1005.88
2019-05-21T04:24:27.745Z,1005.95
2019-05-21T04:25:27.773Z,1005.92
2019-05-21T04:26:27.726Z,1005.89
2019-05-21T04:27:27.725Z,1005.88
2019-05-21T04:28:27.737Z,1005.88
2019-05-21T04:29:27.695Z,1005.89
2019-05-21T04:30:27.680Z,1005.90
2019-05-21T04:31:27.748Z,1005.87
2019-05-21T04:32:27.675Z,1005.84
2019-05-21T04:33:27.683Z,1005.84
2019-05-21T04:34:27.642Z,1005.87
2019-05-21T04:35:27.638Z,1005.87
2019-05-21T04:36:27.623Z,1005.93
2019-05-21T04:37:27.640Z,1005.85
2019-05-21T04:38:27.630Z,1005.81
2019-05-21T04:39:27.588Z,1005.82
2019-05-21T04:40:27.575Z,1005.83
2019-05-21T04:41:27.571Z,1005.85
2019-05-21T04:42:27.552Z,1005.88
2019-05-21T04:43:27.565Z,1005.85
2019-05-21T04:44:27.532Z,1005.89
2019-05-21T04:45:27.519Z,1005.87
2019-05-21T04:46:27.507Z,1005.88
2019-05-21T04:47:27.497Z,1005.89
2019-05-21T04:48:27.510Z,1005.91
2019-05-21T04:49:27.473Z,1005.98
2019-05-21T04:50:27.478Z,1005.91
2019-05-21T04:51:27.461Z,1005.90
2019-05-21T04:52:27.446Z,1005.97
2019-05-21T04:53:27.463Z,1005.93
2019-05-21T04:54:27.428Z,1005.89
2019-05-21T04:55:27.424Z,1005.92
2019-05-21T04:56:27.423Z,1005.89
2019-05-21T04:57:27.390Z,1005.86
2019-05-21T04:58:27.381Z,1005.89
2019-05-21T04:59:27.387Z,1005.86
2019-05-21T05:00:27.396Z,1005.85
2019-05-21T05:01:27.347Z,1005.83
2019-05-21T05:02:27.337Z,1005.86
2019-05-21T05:03:27.348Z,1005.92
2019-05-21T05:04:27.371Z,1005.86
2019-05-21T05:05:27.307Z,1005.86
2019-05-21T05:06:27.370Z,1005.84
2019-05-21T05:07:28.876Z,1005.88
2019-05-21T05:08:27.272Z,1005.88
2019-05-21T05:09:27.299Z,1005.84
2019-05-21T05:10:27.277Z,1005.88
2019-05-21T05:11:27.245Z,1005.87
2019-05-21T05:12:27.247Z,1005.82
2019-05-21T05:13:27.220Z,1005.81
2019-05-21T05:14:27.253Z,1005.83
2019-05-21T05:15:27.197Z,1005.78
2019-05-21T05:16:27.200Z,1005.81
2019-05-21T05:17:27.192Z,1005.85
2019-05-21T05:18:27.172Z,1005.78
2019-05-21T05:19:27.185Z,1005.86
2019-05-21T05:20:27.147Z,1005.75
2019-05-21T05:21:27.135Z,1005.77
2019-05-21T05:22:27.124Z,1005.78
2019-05-21T05:23:27.145Z,1005.81
2019-05-21T05:24:27.124Z,1005.84
2019-05-21T05:25:27.099Z,1005.85
2019-05-21T05:26:27.085Z,1005.84
2019-05-21T05:27:27.071Z,1005.89
2019-05-21T05:28:27.067Z,1005.97
2019-05-21T05:29:27.066Z,1005.98
2019-05-21T05:30:27.105Z,1005.99
2019-05-21T05:31:27.034Z,1006.05
2019-05-21T05:32:27.026Z,1006.09
2019-05-21T05:33:27.011Z,1006.10
2019-05-21T05:34:27.026Z,1006.15
2019-05-21T05:35:26.991Z,1006.13
2019-05-21T05:36:27.015Z,1006.13
2019-05-21T05:37:41.456Z,1006.11
2019-05-21T05:38:27.965Z,1006.14
2019-05-21T05:39:26.967Z,1006.22
2019-05-21T05:40:26.966Z,1006.20
2019-05-21T05:41:26.927Z,1006.22
2019-05-21T05:42:26.918Z,1006.25
2019-05-21T05:43:26.904Z,1006.25
2019-05-21T05:44:26.893Z,1006.23
2019-05-21T05:45:26.927Z,1006.22
2019-05-21T05:46:26.871Z,1006.26
2019-05-21T05:47:26.866Z,1006.23
2019-05-21T05:48:26.911Z,1006.23
2019-05-21T05:49:26.866Z,1006.26
2019-05-21T05:50:26.875Z,1006.29
2019-05-21T05:51:26.818Z,1006.31
2019-05-21T05:52:26.810Z,1006.30
2019-05-21T05:53:27.590Z,1006.36
2019-05-21T05:54:26.789Z,1006.31
2019-05-21T05:55:26.805Z,1006.37
2019-05-21T05:56:26.765Z,1006.36
2019-05-21T05:57:34.338Z,1006.37
2019-05-21T05:58:26.746Z,1006.35
2019-05-21T05:59:26.756Z,1006.38
2019-05-21T06:00:26.744Z,1006.37
2019-05-21T06:01:26.720Z,1006.39
2019-05-21T06:02:26.709Z,1006.44
2019-05-21T06:03:26.700Z,1006.44
2019-05-21T06:04:26.694Z,1006.39
2019-05-21T06:05:26.698Z,1006.47
2019-05-21T06:06:26.665Z,1006.41
2019-05-21T06:07:26.653Z,1006.53
2019-05-21T06:08:26.646Z,1006.46
2019-05-21T06:09:26.639Z,1006.46
2019-05-21T06:10:26.657Z,1006.43
2019-05-21T06:11:26.628Z,1006.45
2019-05-21T06:12:26.600Z,1006.47
2019-05-21T06:13:26.591Z,1006.44
2019-05-21T06:14:26.584Z,1006.53
2019-05-21T06:15:26.584Z,1006.50
2019-05-21T06:16:26.556Z,1006.56
2019-05-21T06:17:26.545Z,1006.56
2019-05-21T06:18:26.534Z,1006.52
2019-05-21T06:19:26.533Z,1006.50
2019-05-21T06:20:26.536Z,1006.48
2019-05-21T06:21:26.509Z,1006.50
2019-05-21T06:22:26.499Z,1006.57
2019-05-21T06:23:26.512Z,1006.58
2019-05-21T06:24:26.492Z,1006.55
2019-05-21T06:25:26.479Z,1006.55
2019-05-21T06:26:26.487Z,1006.55
2019-05-21T06:27:26.440Z,1006.59
2019-05-21T06:28:26.449Z,1006.56
2019-05-21T06:29:26.425Z,1006.61
2019-05-21T06:30:33.951Z,1006.58
2019-05-21T06:31:26.414Z,1006.57
2019-05-21T06:32:26.386Z,1006.64
2019-05-21T06:33:26.393Z,1006.64
2019-05-21T06:34:26.375Z,1006.64
2019-05-21T06:35:26.355Z,1006.69
2019-05-21T06:36:26.372Z,1006.72
2019-05-21T06:37:26.341Z,1006.68
2019-05-21T06:38:26.324Z,1006.74
2019-05-21T06:39:26.316Z,1006.70
2019-05-21T06:40:26.324Z,1006.72
2019-05-21T06:41:26.335Z,1006.72
2019-05-21T06:42:26.289Z,1006.74
2019-05-21T06:43:26.270Z,1006.71
2019-05-21T06:44:26.257Z,1006.74
2019-05-21T06:45:26.268Z,1006.73
2019-05-21T06:46:26.240Z,1006.77
2019-05-21T06:47:26.255Z,1006.74
2019-05-21T06:48:26.220Z,1006.71
2019-05-21T06:49:26.207Z,1006.80
2019-05-21T06:50:26.270Z,1006.73
2019-05-21T06:51:26.230Z,1006.76
2019-05-21T06:52:26.197Z,1006.82
2019-05-21T06:53:26.170Z,1006.84
2019-05-21T06:54:26.181Z,1006.82
2019-05-21T06:55:26.151Z,1006.88
2019-05-21T06:56:26.139Z,1006.90
2019-05-21T06:57:26.237Z,1006.93
2019-05-21T06:58:26.125Z,1006.90
2019-05-21T06:59:26.107Z,1006.93
2019-05-21T07:00:26.182Z,1006.90
2019-05-21T07:01:28.687Z,1006.98
2019-05-21T07:02:26.071Z,1006.97
2019-05-21T07:03:26.091Z,1007.03
2019-05-21T07:04:26.102Z,1007.02
2019-05-21T07:05:26.035Z,1007.04
2019-05-21T07:06:26.040Z,1007.02
2019-05-21T07:07:26.022Z,1007.07
2019-05-21T07:08:34.819Z,1007.08
2019-05-21T07:09:26.995Z,1007.04
2019-05-21T07:10:25.987Z,1007.08
2019-05-21T07:11:25.976Z,1007.04
2019-05-21T07:12:25.978Z,1007.10
2019-05-21T07:13:25.986Z,1007.13
2019-05-21T07:14:25.952Z,1007.12
2019-05-21T07:15:25.930Z,1007.08
2019-05-21T07:16:25.927Z,1007.01
2019-05-21T07:17:25.925Z,1007.02
2019-05-21T07:18:25.921Z,1007.10
2019-05-21T07:19:25.889Z,1007.11
2019-05-21T07:20:25.883Z,1007.09
2019-05-21T07:21:25.873Z,1007.12
2019-05-21T07:22:25.860Z,1007.14
2019-05-21T07:23:25.872Z,1007.16
2019-05-21T07:24:28.303Z,1007.11
2019-05-21T07:25:25.829Z,1007.10
2019-05-21T07:26:25.848Z,1007.21
2019-05-21T07:27:25.809Z,1007.22
2019-05-21T07:28:25.938Z,1007.17
2019-05-21T07:29:25.787Z,1007.19
2019-05-21T07:30:25.776Z,1007.23
2019-05-21T07:31:25.778Z,1007.23
2019-05-21T07:32:25.758Z,1007.25
2019-05-21T07:33:25.762Z,1007.21
2019-05-21T07:34:25.741Z,1007.31
2019-05-21T07:35:25.723Z,1007.39
2019-05-21T07:36:25.712Z,1007.36
2019-05-21T07:37:25.698Z,1007.32
2019-05-21T07:38:25.720Z,1007.31
2019-05-21T07:39:25.684Z,1007.37
2019-05-21T07:40:25.670Z,1007.34
2019-05-21T07:41:25.662Z,1007.37
2019-05-21T07:42:25.697Z,1007.33
2019-05-21T07:43:25.654Z,1007.38
2019-05-21T07:44:25.651Z,1007.38
2019-05-21T07:45:25.613Z,1007.37
2019-05-21T07:46:25.605Z,1007.42
2019-05-21T07:47:25.603Z,1007.40
2019-05-21T07:48:25.582Z,1007.39
2019-05-21T07:49:25.578Z,1007.43
2019-05-21T07:50:25.658Z,1007.39
2019-05-21T07:51:25.759Z,1007.43
2019-05-21T07:52:25.575Z,1007.39
2019-05-21T07:53:25.545Z,1007.46
2019-05-21T07:54:28.041Z,1007.49
2019-05-21T07:55:25.604Z,1007.51
2019-05-21T07:56:33.099Z,1007.55
2019-05-21T07:57:25.526Z,1007.57
2019-05-21T07:58:33.120Z,1007.65
2019-05-21T07:59:25.502Z,1007.61
2019-05-21T08:00:25.488Z,1007.61
2019-05-21T08:01:25.446Z,1007.64
2019-05-21T08:02:25.462Z,1007.68
2019-05-21T08:03:25.422Z,1007.74
2019-05-21T08:04:25.424Z,1007.68
2019-05-21T08:05:25.433Z,1007.73
2019-05-21T08:06:25.410Z,1007.74
2019-05-21T08:07:25.381Z,1007.70
2019-05-21T08:08:25.371Z,1007.65
2019-05-21T08:09:25.367Z,1007.74
2019-05-21T08:10:25.353Z,1007.78
2019-05-21T08:11:27.276Z,1007.76
2019-05-21T08:12:38.200Z,1007.71
2019-05-21T08:13:26.315Z,1007.73
2019-05-21T08:14:25.333Z,1007.76
2019-05-21T08:15:25.296Z,1007.72
2019-05-21T08:16:25.331Z,1007.70
2019-05-21T08:17:25.281Z,1007.76
2019-05-21T08:18:25.283Z,1007.73
2019-05-21T08:19:25.254Z,1007.79
2019-05-21T08:20:25.243Z,1007.82
2019-05-21T08:21:25.232Z,1007.83
2019-05-21T08:22:25.244Z,1007.83
2019-05-21T08:23:25.222Z,1007.83
2019-05-21T08:24:25.205Z,1007.82
2019-05-21T08:25:25.189Z,1007.86
2019-05-21T08:26:25.182Z,1007.89
2019-05-21T08:27:25.194Z,1007.79
2019-05-21T08:28:25.162Z,1007.79
2019-05-21T08:29:25.157Z,1007.81
2019-05-21T08:30:25.137Z,1007.82
2019-05-21T08:31:25.127Z,1007.79
2019-05-21T08:32:25.135Z,1007.91
2019-05-21T08:33:25.104Z,1007.90
2019-05-21T08:34:25.099Z,1007.88
2019-05-21T08:35:25.087Z,1007.90
2019-05-21T08:36:25.074Z,1007.90
2019-05-21T08:37:25.087Z,1007.89
2019-05-21T08:38:25.054Z,1007.87
2019-05-21T08:39:28.937Z,1007.89
2019-05-21T08:40:25.041Z,1007.93
2019-05-21T08:41:25.029Z,1007.96
2019-05-21T08:42:25.061Z,1007.94
2019-05-21T08:43:25.024Z,1007.97
2019-05-21T08:44:25.009Z,1007.93
2019-05-21T08:45:24.977Z,1007.91
2019-05-21T08:46:24.981Z,1007.96
2019-05-21T08:47:24.989Z,1007.93
2019-05-21T08:48:24.957Z,1007.93
2019-05-21T08:49:24.939Z,1007.96
2019-05-21T08:50:24.932Z,1007.95
2019-05-21T08:51:24.921Z,1008.08
2019-05-21T08:52:24.903Z,1008.11
2019-05-21T08:53:24.916Z,1008.16
2019-05-21T08:54:24.884Z,1008.14
2019-05-21T08:55:24.876Z,1008.16
2019-05-21T08:56:24.966Z,1008.20
2019-05-21T08:57:24.857Z,1008.23
2019-05-21T08:58:24.863Z,1008.28
2019-05-21T08:59:24.836Z,1008.29
2019-05-21T09:00:24.822Z,1008.31
2019-05-21T09:01:24.823Z,1008.38
2019-05-21T09:02:24.811Z,1008.32
2019-05-21T09:03:24.811Z,1008.38
2019-05-21T09:04:43.619Z,1008.40
2019-05-21T09:05:25.767Z,1008.50
2019-05-21T09:06:24.788Z,1008.51
2019-05-21T09:07:24.745Z,1008.60
2019-05-21T09:08:24.759Z,1008.65
2019-05-21T09:09:24.729Z,1008.65
2019-05-21T09:10:24.712Z,1008.66
2019-05-21T09:11:32.281Z,1008.71
2019-05-21T09:12:24.703Z,1008.67
2019-05-21T09:13:24.713Z,1008.70
2019-05-21T09:14:24.730Z,1008.70
2019-05-21T09:15:24.668Z,1008.74
2019-05-21T09:16:24.657Z,1008.71
2019-05-21T09:17:24.639Z,1008.78
2019-05-21T09:18:24.659Z,1008.76
2019-05-21T09:19:24.624Z,1008.70
2019-05-21T09:20:24.611Z,1008.70
2019-05-21T09:21:24.604Z,1008.71
2019-05-21T09:22:24.587Z,1008.74
2019-05-21T09:23:24.576Z,1008.69
2019-05-21T09:24:24.589Z,1008.75
2019-05-21T09:25:24.563Z,1008.79
2019-05-21T09:26:24.542Z,1008.80
2019-05-21T09:27:24.534Z,1008.77
2019-05-21T09:28:24.542Z,1008.78
2019-05-21T09:29:24.541Z,1008.83
2019-05-21T09:30:24.510Z,1008.85
2019-05-21T09:31:24.507Z,1008.82
2019-05-21T09:32:24.492Z,1008.86
2019-05-21T09:33:24.468Z,1008.78
2019-05-21T09:34:24.459Z,1008.83
2019-05-21T09:35:24.476Z,1008.83
2019-05-21T09:36:25.316Z,1008.78
2019-05-21T09:37:24.432Z,1008.81
2019-05-21T09:38:24.425Z,1008.79
2019-05-21T09:39:24.415Z,1008.86
2019-05-21T09:40:24.426Z,1008.82
2019-05-21T09:41:24.404Z,1008.80
2019-05-21T09:42:24.388Z,1008.85
2019-05-21T09:43:24.365Z,1008.88
2019-05-21T09:44:24.358Z,1008.82
2019-05-21T09:45:24.380Z,1008.86
2019-05-21T09:46:24.354Z,1008.86
2019-05-21T09:47:24.344Z,1008.89
2019-05-21T09:48:24.324Z,1008.92
2019-05-21T09:49:24.311Z,1008.89
2019-05-21T09:50:24.356Z,1008.90
2019-05-21T09:51:24.295Z,1008.86
2019-05-21T09:52:24.274Z,1008.83
2019-05-21T09:53:24.297Z,1008.77
2019-05-21T09:54:24.261Z,1008.86
2019-05-21T09:55:24.354Z,1008.94
2019-05-21T09:56:24.238Z,1009.00
2019-05-21T09:57:24.221Z,1008.94
2019-05-21T09:58:24.228Z,1008.97
2019-05-21T09:59:24.205Z,1008.95
2019-05-21T10:00:24.223Z,1008.97
2019-05-21T10:01:24.211Z,1008.91
2019-05-21T10:02:24.193Z,1008.88
2019-05-21T10:03:24.209Z,1008.94
2019-05-21T10:04:24.175Z,1008.93
2019-05-21T10:05:24.135Z,1009.01
2019-05-21T10:06:24.156Z,1009.01
2019-05-21T10:07:38.958Z,1009.06
2019-05-21T10:08:25.129Z,1009.05
2019-05-21T10:09:24.104Z,1009.02
2019-05-21T10:10:24.085Z,1009.05
2019-05-21T10:11:24.109Z,1009.08
2019-05-21T10:12:24.059Z,1009.07
2019-05-21T10:13:24.056Z,1009.11
2019-05-21T10:14:24.036Z,1009.04
2019-05-21T10:15:24.050Z,1009.05
2019-05-21T10:16:24.079Z,1009.11
2019-05-21T10:17:24.018Z,1009.11
2019-05-21T10:18:23.996Z,1009.06
2019-05-21T10:19:23.982Z,1009.14
2019-05-21T10:20:23.972Z,1009.11
2019-05-21T10:21:24.007Z,1009.08
2019-05-21T10:22:23.963Z,1009.08
2019-05-21T10:23:23.942Z,1009.10
2019-05-21T10:24:23.931Z,1009.06
2019-05-21T10:25:23.920Z,1009.15
2019-05-21T10:26:23.936Z,1009.12
2019-05-21T10:27:23.905Z,1009.13
2019-05-21T10:28:23.890Z,1009.11
2019-05-21T10:29:23.879Z,1009.17
2019-05-21T10:30:23.891Z,1009.18
2019-05-21T10:31:23.857Z,1009.18
2019-05-21T10:32:23.848Z,1009.18
2019-05-21T10:33:23.834Z,1009.12
2019-05-21T10:34:23.828Z,1009.12
2019-05-21T10:35:23.817Z,1009.10
2019-05-21T10:36:23.826Z,1009.14
2019-05-21T10:37:23.801Z,1009.16
2019-05-21T10:38:23.781Z,1009.15
2019-05-21T10:39:23.795Z,1009.14
2019-05-21T10:40:23.795Z,1009.16
2019-05-21T10:41:23.782Z,1009.14
2019-05-21T10:42:23.743Z,1009.14
2019-05-21T10:43:23.729Z,1009.17
2019-05-21T10:44:23.722Z,1009.15
2019-05-21T10:45:23.708Z,1009.20
2019-05-21T10:46:23.729Z,1009.19
2019-05-21T10:47:23.689Z,1009.20
2019-05-21T10:48:23.679Z,1009.19
2019-05-21T10:49:23.667Z,1009.22
2019-05-21T10:50:23.657Z,1009.28
2019-05-21T10:51:23.700Z,1009.21
2019-05-21T10:52:23.648Z,1009.24
2019-05-21T10:53:23.625Z,1009.20
2019-05-21T10:54:23.617Z,1009.17
2019-05-21T10:55:23.605Z,1009.20
2019-05-21T10:56:23.613Z,1009.23
2019-05-21T10:57:23.596Z,1009.24
2019-05-21T10:58:23.572Z,1009.21
2019-05-21T10:59:23.577Z,1009.23
2019-05-21T11:00:23.660Z,1009.25
2019-05-21T11:01:23.580Z,1009.27
2019-05-21T11:02:23.530Z,1009.28
2019-05-21T11:03:23.520Z,1009.30
2019-05-21T11:04:32.120Z,1009.31
2019-05-21T11:05:23.519Z,1009.32
2019-05-21T11:06:23.536Z,1009.29
2019-05-21T11:07:23.486Z,1009.29
2019-05-21T11:08:25.045Z,1009.34
2019-05-21T11:09:32.089Z,1009.29
2019-05-21T11:10:23.512Z,1009.33
2019-05-21T11:11:32.364Z,1009.34
2019-05-21T11:12:23.494Z,1009.33
2019-05-21T11:13:32.017Z,1009.45
2019-05-21T11:14:23.416Z,1009.45
2019-05-21T11:15:32.035Z,1009.45
2019-05-21T11:16:23.457Z,1009.48
2019-05-21T11:17:30.987Z,1009.48
2019-05-21T11:18:23.382Z,1009.48
2019-05-21T11:19:30.957Z,1009.49
2019-05-21T11:20:23.384Z,1009.55
2019-05-21T11:21:23.352Z,1009.55
2019-05-21T11:22:30.914Z,1009.55
2019-05-21T11:23:23.333Z,1009.60
2019-05-21T11:24:30.852Z,1009.54
2019-05-21T11:25:23.315Z,1009.61
2019-05-21T11:26:30.925Z,1009.56
2019-05-21T11:27:23.304Z,1009.60
2019-05-21T11:28:23.268Z,1009.59
2019-05-21T11:29:23.245Z,1009.59
2019-05-21T11:30:23.239Z,1009.61
2019-05-21T11:31:23.229Z,1009.59
2019-05-21T11:32:23.243Z,1009.60
2019-05-21T11:33:23.213Z,1009.61
2019-05-21T11:34:23.189Z,1009.64
2019-05-21T11:35:23.179Z,1009.57
2019-05-21T11:36:23.170Z,1009.64
2019-05-21T11:37:23.189Z,1009.64
2019-05-21T11:38:37.742Z,1009.62
2019-05-21T11:39:24.146Z,1009.66
2019-05-21T11:40:23.133Z,1009.62
2019-05-21T11:41:30.732Z,1009.65
2019-05-21T11:42:23.116Z,1009.68
2019-05-21T11:43:30.765Z,1009.71
2019-05-21T11:44:23.098Z,1009.71
2019-05-21T11:45:32.393Z,1009.72
2019-05-21T11:47:32.925Z,1009.74
2019-05-21T11:48:41.663Z,1009.78
2019-05-21T11:49:32.790Z,1009.77
2019-05-21T11:50:40.385Z,1009.78
2019-05-21T11:51:32.768Z,1009.77
2019-05-21T11:52:40.388Z,1009.74
2019-05-21T11:53:32.747Z,1009.79
2019-05-21T11:54:40.378Z,1009.85
2019-05-21T11:55:32.756Z,1009.82
2019-05-21T11:56:36.052Z,1009.84
2019-05-21T11:57:32.702Z,1009.85
2019-05-21T11:58:40.308Z,1009.89
2019-05-21T11:59:32.693Z,1009.85
2019-05-21T12:00:32.696Z,1009.91
2019-05-21T12:02:42.416Z,1009.92
2019-05-21T12:03:42.431Z,1009.96
2019-05-21T12:04:42.388Z,1009.90
2019-05-21T12:05:42.375Z,1009.90
2019-05-21T12:06:42.365Z,1009.95
2019-05-21T12:07:42.356Z,1009.97
2019-05-21T12:08:55.481Z,1009.98